createdAt,value
2023-04-19T00:00:08.309Z,14.01
2023-04-19T00:02:36.699Z,14.01
2023-04-19T00:05:05.812Z,14.02
2023-04-19T00:07:34.245Z,13.98
2023-04-19T00:10:02.312Z,14.05
2023-04-19T00:12:31.645Z,14.05
2023-04-19T00:14:59.714Z,14.04
2023-04-19T00:17:28.238Z,14.02
2023-04-19T00:19:56.801Z,14.00
2023-04-19T00:22:24.842Z,13.99
2023-04-19T00:24:52.714Z,13.99
2023-04-19T00:27:20.640Z,13.99
2023-04-19T00:29:50.083Z,14.02
2023-04-19T00:32:18.016Z,14.06
2023-04-19T00:34:46.050Z,14.11
2023-04-19T00:37:13.933Z,14.11
2023-04-19T00:39:41.823Z,14.00
2023-04-19T00:42:09.800Z,13.88
2023-04-19T00:44:37.650Z,13.88
2023-04-19T00:47:07.029Z,13.91
2023-04-19T00:49:35.021Z,13.88
2023-04-19T00:52:03.356Z,13.84
2023-04-19T00:54:31.539Z,13.85
2023-04-19T00:56:59.691Z,13.88
2023-04-19T00:59:27.995Z,13.94
2023-04-19T01:01:56.234Z,13.94
2023-04-19T01:04:26.077Z,13.88
2023-04-19T01:06:54.879Z,13.94
2023-04-19T01:09:22.844Z,13.98
2023-04-19T01:11:51.169Z,13.98
2023-04-19T01:14:19.112Z,13.97
2023-04-19T01:16:47.979Z,13.95
2023-04-19T01:19:16.713Z,13.92
2023-04-19T01:21:46.428Z,13.90
2023-04-19T01:24:15.969Z,13.90
2023-04-19T01:26:44.090Z,13.90
2023-04-19T01:29:12.010Z,13.93
2023-04-19T01:31:40.284Z,13.92
2023-04-19T01:34:08.163Z,13.93
2023-04-19T01:36:36.142Z,13.93
2023-04-19T01:39:04.212Z,13.93
2023-04-19T01:41:33.444Z,13.89
2023-04-19T01:44:01.751Z,13.85
2023-04-19T01:46:29.716Z,13.75
2023-04-19T01:48:57.631Z,13.63
2023-04-19T01:51:25.852Z,13.61
2023-04-19T01:53:54.687Z,13.63
2023-04-19T01:56:24.246Z,13.61
2023-04-19T01:58:53.522Z,13.55
2023-04-19T02:01:21.728Z,13.51
2023-04-19T02:03:49.744Z,13.48
2023-04-19T02:06:18.000Z,13.55
2023-04-19T02:08:45.817Z,13.57
2023-04-19T02:11:15.619Z,13.57
2023-04-19T02:13:44.309Z,13.47
2023-04-19T02:16:13.838Z,13.43
2023-04-19T02:18:41.794Z,13.29
2023-04-19T02:21:10.928Z,13.29
2023-04-19T02:23:38.946Z,13.36
2023-04-19T02:26:06.990Z,13.44
2023-04-19T02:28:35.768Z,13.49
2023-04-19T02:31:06.677Z,13.42
2023-04-19T02:33:37.420Z,13.39
2023-04-19T02:36:05.585Z,13.28
2023-04-19T02:38:34.797Z,13.20
2023-04-19T02:41:04.343Z,13.17
2023-04-19T02:43:32.257Z,13.18
2023-04-19T02:46:00.184Z,13.26
2023-04-19T02:48:28.127Z,13.30
2023-04-19T02:50:57.525Z,13.29
2023-04-19T02:53:25.689Z,13.31
2023-04-19T02:55:53.769Z,13.32
2023-04-19T02:58:21.889Z,13.33
2023-04-19T03:01:01.388Z,13.25
2023-04-19T03:03:29.437Z,13.14
2023-04-19T03:05:59.148Z,13.13
2023-04-19T03:08:28.426Z,13.14
2023-04-19T03:10:56.369Z,13.23
2023-04-19T03:13:24.358Z,13.30
2023-04-19T03:15:52.364Z,13.24
2023-04-19T03:18:23.459Z,13.28
2023-04-19T03:20:53.549Z,13.20
2023-04-19T03:23:23.169Z,13.23
2023-04-19T03:25:52.092Z,13.26
2023-04-19T03:28:35.509Z,13.35
2023-04-19T03:31:21.783Z,13.43
2023-04-19T03:33:51.872Z,13.51
2023-04-19T03:36:22.659Z,13.56
2023-04-19T03:38:52.715Z,13.59
2023-04-19T03:41:25.334Z,13.56
2023-04-19T03:44:02.691Z,13.54
2023-04-19T03:46:31.575Z,13.43
2023-04-19T03:49:00.602Z,13.26
2023-04-19T03:51:29.714Z,13.11
2023-04-19T03:53:58.947Z,13.01
2023-04-19T03:56:28.063Z,12.92
2023-04-19T03:58:56.685Z,12.83
2023-04-19T04:01:25.416Z,12.81
2023-04-19T04:03:54.415Z,12.79
2023-04-19T04:06:22.871Z,12.76
2023-04-19T04:08:51.110Z,12.77
2023-04-19T04:11:20.463Z,12.76
2023-04-19T04:13:50.641Z,12.72
2023-04-19T04:16:22.902Z,12.77
2023-04-19T04:18:52.600Z,12.79
2023-04-19T04:21:21.471Z,12.79
2023-04-19T04:23:50.053Z,12.78
2023-04-19T04:26:43.994Z,12.78
2023-04-19T04:29:20.572Z,12.78
2023-04-19T04:31:50.789Z,12.73
2023-04-19T04:34:22.853Z,12.77
2023-04-19T04:36:56.341Z,12.77
2023-04-19T04:39:25.238Z,12.73
2023-04-19T04:41:54.526Z,12.81
2023-04-19T04:44:22.488Z,12.91
2023-04-19T04:46:50.726Z,12.98
2023-04-19T04:49:24.754Z,13.03
2023-04-19T04:51:52.695Z,13.06
2023-04-19T04:54:21.810Z,13.06
2023-04-19T04:56:50.321Z,13.05
2023-04-19T04:59:19.977Z,13.18
2023-04-19T05:01:50.400Z,13.40
2023-04-19T05:04:19.485Z,13.52
2023-04-19T05:06:47.396Z,13.48
2023-04-19T05:09:21.550Z,13.52
2023-04-19T05:11:49.546Z,13.44
2023-04-19T05:14:19.243Z,13.36
2023-04-19T05:16:47.343Z,13.27
2023-04-19T05:19:15.426Z,13.27
2023-04-19T05:21:49.271Z,13.25
2023-04-19T05:24:18.306Z,13.19
2023-04-19T05:26:47.100Z,13.24
2023-04-19T05:29:15.306Z,13.15
2023-04-19T05:31:49.324Z,13.15
2023-04-19T05:34:24.895Z,13.12
2023-04-19T05:36:54.667Z,13.09
2023-04-19T05:39:22.662Z,13.08
2023-04-19T05:41:50.869Z,13.13
2023-04-19T05:44:18.791Z,13.16
2023-04-19T05:46:47.047Z,13.21
2023-04-19T05:49:21.539Z,13.29
2023-04-19T05:52:15.793Z,13.39
2023-04-19T05:54:50.366Z,13.36
2023-04-19T05:57:18.323Z,13.42
2023-04-19T05:59:46.254Z,13.49
2023-04-19T06:02:17.984Z,13.58
2023-04-19T06:04:47.492Z,13.56
2023-04-19T06:07:30.173Z,13.51
2023-04-19T06:10:00.896Z,13.48
2023-04-19T06:12:28.825Z,13.41
2023-04-19T06:14:59.356Z,13.41
2023-04-19T06:17:27.798Z,13.35
2023-04-19T06:19:57.031Z,13.36
2023-04-19T06:22:25.084Z,13.36
2023-04-19T06:24:52.954Z,13.31
2023-04-19T06:27:20.828Z,13.36
2023-04-19T06:29:50.540Z,13.39
2023-04-19T06:32:19.202Z,13.46
2023-04-19T06:34:47.058Z,13.46
2023-04-19T06:37:16.399Z,13.55
2023-04-19T06:39:44.296Z,13.55
2023-04-19T06:42:12.460Z,13.48
2023-04-19T06:44:40.363Z,13.46
2023-04-19T06:47:08.297Z,13.43
2023-04-19T06:49:36.180Z,13.39
2023-04-19T06:52:04.455Z,13.39
2023-04-19T06:54:33.682Z,13.41
2023-04-19T06:57:02.400Z,13.48
2023-04-19T06:59:32.223Z,13.46
2023-04-19T07:02:00.243Z,13.38
2023-04-19T07:04:28.393Z,13.39
2023-04-19T07:06:56.377Z,13.45
2023-04-19T07:09:24.242Z,13.46
2023-04-19T07:11:53.657Z,13.38
2023-04-19T07:14:21.793Z,13.48
2023-04-19T07:16:50.876Z,13.59
2023-04-19T07:19:20.671Z,13.66
2023-04-19T07:21:48.510Z,13.84
2023-04-19T07:24:17.253Z,13.92
2023-04-19T07:26:45.388Z,14.01
2023-04-19T07:29:14.635Z,14.11
2023-04-19T07:31:42.673Z,14.21
2023-04-19T07:34:10.646Z,14.21
2023-04-19T07:36:39.029Z,14.35
2023-04-19T07:39:07.133Z,14.46
2023-04-19T07:41:36.092Z,14.46
2023-04-19T07:44:04.412Z,14.57
2023-04-19T07:46:33.746Z,14.62
2023-04-19T07:49:01.665Z,14.64
2023-04-19T07:51:29.650Z,14.60
2023-04-19T07:53:57.548Z,14.63
2023-04-19T07:56:26.409Z,14.70
2023-04-19T07:59:06.848Z,14.84
2023-04-19T08:01:38.167Z,15.11
2023-04-19T08:04:06.672Z,15.20
2023-04-19T08:06:34.793Z,15.21
2023-04-19T08:09:03.008Z,15.28
2023-04-19T08:11:31.021Z,15.31
2023-04-19T08:14:09.316Z,15.32
2023-04-19T08:17:19.265Z,15.29
2023-04-19T08:19:32.142Z,15.36
2023-04-19T08:21:59.986Z,15.35
2023-04-19T08:24:28.245Z,15.40
2023-04-19T08:26:57.083Z,15.21
2023-04-19T08:29:26.744Z,15.24
2023-04-19T08:31:56.196Z,15.35
2023-04-19T08:34:24.233Z,15.45
2023-04-19T08:37:03.573Z,15.49
2023-04-19T08:39:34.214Z,15.58
2023-04-19T08:42:10.922Z,15.53
2023-04-19T08:47:30.195Z,15.59
2023-04-19T08:50:13.978Z,15.63
2023-04-19T08:52:56.021Z,15.75
2023-04-19T08:55:29.501Z,15.61
2023-04-19T08:57:58.648Z,15.55
2023-04-19T09:00:26.698Z,15.50
2023-04-19T09:02:56.534Z,15.63
2023-04-19T09:05:24.853Z,15.61
2023-04-19T09:07:53.128Z,15.62
2023-04-19T09:10:22.527Z,15.67
2023-04-19T09:13:02.601Z,15.75
2023-04-19T09:15:39.371Z,15.84
2023-04-19T09:18:10.769Z,15.80
2023-04-19T09:20:39.501Z,15.89
2023-04-19T09:23:09.175Z,15.97
2023-04-19T09:25:52.927Z,15.96
2023-04-19T09:28:25.487Z,15.90
2023-04-19T09:33:36.245Z,15.83
2023-04-19T09:36:04.521Z,15.70
2023-04-19T09:38:32.455Z,15.68
2023-04-19T09:41:08.410Z,15.46
2023-04-19T09:44:01.548Z,15.41
2023-04-19T09:46:36.185Z,15.41
2023-04-19T09:49:33.775Z,15.26
2023-04-19T09:52:11.209Z,15.13
2023-04-19T09:54:40.156Z,15.12
2023-04-19T09:57:09.278Z,15.17
2023-04-19T09:59:37.182Z,15.32
2023-04-19T10:02:07.211Z,15.31
2023-04-19T10:04:54.384Z,15.25
2023-04-19T10:07:30.835Z,15.32
2023-04-19T10:10:11.880Z,15.35
2023-04-19T10:15:22.324Z,15.10
2023-04-19T10:17:50.624Z,15.09
2023-04-19T10:20:23.996Z,14.97
2023-04-19T10:22:52.601Z,14.85
2023-04-19T10:25:29.855Z,14.93
2023-04-19T10:27:58.951Z,15.00
2023-04-19T10:30:28.132Z,14.96
2023-04-19T10:32:57.594Z,14.85
2023-04-19T10:35:29.673Z,14.93
2023-04-19T10:38:06.951Z,14.92
2023-04-19T10:41:01.563Z,15.09
2023-04-19T10:43:31.028Z,15.14
2023-04-19T10:46:02.162Z,15.17
2023-04-19T10:48:39.111Z,15.22
2023-04-19T10:51:15.459Z,15.36
2023-04-19T10:53:52.190Z,15.45
2023-04-19T10:56:21.477Z,15.61
2023-04-19T10:59:15.720Z,15.70
2023-04-19T11:01:45.141Z,15.82
2023-04-19T11:04:14.498Z,15.84
2023-04-19T11:09:38.883Z,15.98
2023-04-19T11:12:08.822Z,15.97
2023-04-19T11:14:38.108Z,15.74
2023-04-19T11:17:16.021Z,15.58
2023-04-19T11:19:45.685Z,15.63
2023-04-19T11:22:13.599Z,15.64
2023-04-19T11:24:48.132Z,15.71
2023-04-19T11:27:16.383Z,15.77
2023-04-19T11:29:44.348Z,15.80
2023-04-19T11:32:12.277Z,15.80
2023-04-19T11:34:41.441Z,15.79
2023-04-19T11:37:10.836Z,15.96
2023-04-19T11:39:48.265Z,16.03
2023-04-19T11:42:20.482Z,16.17
2023-04-19T11:44:52.954Z,16.10
2023-04-19T11:47:21.136Z,16.09
2023-04-19T11:49:49.054Z,16.12
2023-04-19T11:52:23.545Z,16.02
2023-04-19T11:54:53.562Z,16.17
2023-04-19T11:57:31.631Z,16.47
2023-04-19T12:00:11.978Z,16.36
2023-04-19T12:02:45.243Z,16.34
2023-04-19T12:05:15.242Z,16.51
2023-04-19T12:08:00.866Z,16.71
2023-04-19T12:10:30.865Z,16.81
2023-04-19T12:12:58.949Z,16.97
2023-04-19T12:15:42.375Z,16.85
2023-04-19T12:18:10.398Z,16.76
2023-04-19T12:20:39.973Z,16.59
2023-04-19T12:23:11.141Z,16.52
2023-04-19T12:25:41.304Z,16.38
2023-04-19T12:28:09.475Z,16.24
2023-04-19T12:30:37.954Z,16.33
2023-04-19T12:33:07.451Z,16.28
2023-04-19T12:35:35.987Z,16.36
2023-04-19T12:38:03.904Z,16.37
2023-04-19T12:40:32.140Z,16.28
2023-04-19T12:43:01.498Z,16.26
2023-04-19T12:45:29.454Z,16.07
2023-04-19T12:47:57.374Z,16.00
2023-04-19T12:50:25.367Z,16.12
2023-04-19T12:52:53.800Z,16.06
2023-04-19T12:55:21.902Z,16.27
2023-04-19T12:57:50.033Z,16.40
2023-04-19T13:00:19.558Z,16.07
2023-04-19T13:02:48.303Z,16.35
2023-04-19T13:05:16.443Z,16.41
2023-04-19T13:07:44.365Z,16.26
2023-04-19T13:10:12.471Z,16.24
2023-04-19T13:12:40.770Z,16.28
2023-04-19T13:15:10.187Z,16.35
2023-04-19T13:17:39.593Z,16.32
2023-04-19T13:20:09.431Z,16.12
2023-04-19T13:22:37.682Z,16.08
2023-04-19T13:25:06.161Z,16.15
2023-04-19T13:27:34.093Z,16.30
2023-04-19T13:30:01.994Z,16.45
2023-04-19T13:32:30.261Z,16.52
2023-04-19T13:34:59.545Z,16.57
2023-04-19T13:37:27.533Z,16.20
2023-04-19T13:40:07.097Z,15.92
2023-04-19T13:42:43.148Z,15.79
2023-04-19T13:45:11.833Z,15.87
2023-04-19T13:47:39.759Z,15.81
2023-04-19T13:50:10.053Z,15.62
2023-04-19T13:52:38.023Z,15.59
2023-04-19T13:55:06.553Z,15.69
2023-04-19T13:57:35.009Z,15.82
2023-04-19T14:00:03.022Z,15.88
2023-04-19T14:02:35.772Z,15.71
2023-04-19T14:05:04.653Z,15.77
2023-04-19T14:07:34.016Z,15.91
2023-04-19T14:10:02.030Z,15.83
2023-04-19T14:12:29.938Z,15.55
2023-04-19T14:14:57.898Z,15.36
2023-04-19T14:17:26.120Z,15.35
2023-04-19T14:19:53.991Z,15.21
2023-04-19T14:22:21.809Z,14.94
2023-04-19T14:24:51.195Z,14.75
2023-04-19T14:27:19.415Z,14.69
2023-04-19T14:29:47.442Z,14.59
2023-04-19T14:34:46.460Z,14.54
2023-04-19T14:37:14.342Z,14.55
2023-04-19T14:39:42.255Z,14.58
2023-04-19T14:42:11.429Z,14.49
2023-04-19T14:44:39.271Z,14.41
2023-04-19T14:47:07.471Z,14.36
2023-04-19T14:49:35.558Z,14.21
2023-04-19T14:52:04.850Z,14.08
2023-04-19T14:54:32.759Z,13.93
2023-04-19T14:57:01.388Z,13.81
2023-04-19T14:59:31.051Z,13.69
2023-04-19T15:01:59.109Z,13.63
2023-04-19T15:04:27.150Z,13.58
2023-04-19T15:06:55.086Z,13.54
2023-04-19T15:09:23.025Z,13.54
2023-04-19T15:11:50.936Z,13.50
2023-04-19T15:14:19.822Z,13.54
2023-04-19T15:16:49.082Z,13.52
2023-04-19T15:19:17.157Z,13.47
2023-04-19T15:21:45.295Z,13.42
2023-04-19T15:24:13.244Z,13.47
2023-04-19T15:26:43.568Z,13.36
2023-04-19T15:29:12.310Z,13.31
2023-04-19T15:31:40.617Z,13.19
2023-04-19T15:34:09.924Z,13.11
2023-04-19T15:36:37.816Z,13.17
2023-04-19T15:39:05.702Z,13.30
2023-04-19T15:41:33.629Z,13.27
2023-04-19T15:44:01.560Z,13.30
2023-04-19T15:46:29.609Z,13.31
2023-04-19T15:48:57.467Z,13.15
2023-04-19T15:51:27.480Z,13.22
2023-04-19T15:53:55.349Z,13.08
2023-04-19T15:56:23.128Z,12.93
2023-04-19T15:58:50.968Z,12.88
2023-04-19T16:01:19.355Z,12.86
2023-04-19T16:03:47.724Z,12.80
2023-04-19T16:06:15.745Z,12.72
2023-04-19T16:08:45.037Z,12.78
2023-04-19T16:11:12.981Z,12.79
2023-04-19T16:13:40.778Z,12.76
2023-04-19T16:16:09.044Z,12.71
2023-04-19T16:18:36.970Z,12.55
2023-04-19T16:21:05.320Z,12.48
2023-04-19T16:23:33.214Z,12.48
2023-04-19T16:26:02.513Z,12.47
2023-04-19T16:28:30.610Z,12.43
2023-04-19T16:30:58.574Z,12.41
2023-04-19T16:33:26.440Z,12.31
2023-04-19T16:35:54.514Z,12.31
2023-04-19T16:38:22.372Z,12.34
2023-04-19T16:40:50.471Z,12.32
2023-04-19T16:43:20.802Z,12.34
2023-04-19T16:45:48.889Z,12.26
2023-04-19T16:48:16.932Z,12.23
2023-04-19T16:50:44.915Z,12.21
2023-04-19T16:53:12.875Z,12.24
2023-04-19T16:55:40.747Z,12.23
2023-04-19T16:58:08.630Z,12.27
2023-04-19T17:00:37.931Z,12.20
2023-04-19T17:03:05.936Z,12.18
2023-04-19T17:05:34.980Z,12.18
2023-04-19T17:08:02.829Z,12.11
2023-04-19T17:10:30.806Z,12.14
2023-04-19T17:12:58.940Z,12.19
2023-04-19T17:15:27.094Z,12.19
2023-04-19T17:17:56.950Z,12.18
2023-04-19T17:20:24.931Z,12.27
2023-04-19T17:22:52.776Z,12.20
2023-04-19T17:25:22.326Z,12.04
2023-04-19T17:27:50.807Z,11.93
2023-04-19T17:30:18.854Z,11.89
2023-04-19T17:32:46.942Z,11.91
2023-04-19T17:35:16.440Z,11.86
2023-04-19T17:37:44.541Z,11.86
2023-04-19T17:40:13.159Z,11.84
2023-04-19T17:42:41.039Z,11.88
2023-04-19T17:45:11.127Z,11.95
2023-04-19T17:47:39.442Z,11.95
2023-04-19T17:50:09.527Z,12.01
2023-04-19T17:52:39.588Z,12.02
2023-04-19T17:55:08.159Z,12.03
2023-04-19T17:57:36.195Z,11.93
2023-04-19T18:00:06.426Z,11.82
2023-04-19T18:02:37.281Z,11.71
2023-04-19T18:05:06.177Z,11.68
2023-04-19T18:07:34.195Z,11.65
2023-04-19T18:10:04.241Z,11.62
2023-04-19T18:12:32.172Z,11.55
2023-04-19T18:15:00.189Z,11.60
2023-04-19T18:17:28.239Z,11.66
2023-04-19T18:19:56.044Z,11.59
2023-04-19T18:22:24.087Z,11.54
2023-04-19T18:24:53.386Z,11.64
2023-04-19T18:27:22.673Z,11.73
2023-04-19T18:29:52.258Z,11.77
2023-04-19T18:32:21.858Z,11.84
2023-04-19T18:34:49.963Z,11.80
2023-04-19T18:37:18.316Z,11.84
2023-04-19T18:39:46.637Z,11.73
2023-04-19T18:42:14.493Z,11.90
2023-04-19T18:44:53.739Z,11.93
2023-04-19T18:47:22.511Z,12.01
2023-04-19T18:50:03.463Z,12.09
2023-04-19T18:52:32.901Z,12.26
2023-04-19T18:55:01.363Z,12.32
2023-04-19T18:57:34.199Z,12.41
2023-04-19T19:00:06.708Z,12.45
2023-04-19T19:02:36.966Z,12.52
2023-04-19T19:05:08.139Z,12.54
2023-04-19T19:07:38.077Z,12.60
2023-04-19T19:12:40.815Z,12.39
2023-04-19T19:15:11.020Z,12.36
2023-04-19T19:17:39.037Z,12.42
2023-04-19T19:20:09.213Z,12.36
2023-04-19T19:22:37.240Z,12.12
2023-04-19T19:25:05.642Z,11.95
2023-04-19T19:27:33.573Z,11.79
2023-04-19T19:30:03.443Z,11.79
2023-04-19T19:32:32.931Z,11.78
2023-04-19T19:35:05.334Z,11.91
2023-04-19T19:37:36.090Z,11.68
2023-04-19T19:40:06.459Z,11.59
2023-04-19T19:42:34.839Z,11.69
2023-04-19T19:45:04.028Z,11.83
2023-04-19T19:47:35.548Z,11.85
2023-04-19T19:50:42.027Z,11.89
2023-04-19T19:52:52.442Z,11.97
2023-04-19T19:55:20.333Z,12.10
2023-04-19T19:58:20.998Z,12.16
2023-04-19T20:01:04.743Z,12.23
2023-04-19T20:03:37.844Z,12.24
2023-04-19T20:08:42.518Z,12.30
2023-04-19T20:11:11.973Z,12.35
2023-04-19T20:13:39.852Z,12.32
2023-04-19T20:16:09.990Z,12.33
2023-04-19T20:18:39.655Z,12.27
2023-04-19T20:21:07.657Z,12.21
2023-04-19T20:23:38.692Z,12.18
2023-04-19T20:26:06.581Z,12.17
2023-04-19T20:28:35.006Z,12.13
2023-04-19T20:31:02.972Z,12.01
2023-04-19T20:33:31.002Z,11.83
2023-04-19T20:36:01.796Z,11.72
2023-04-19T20:38:29.785Z,11.81
2023-04-19T20:40:57.704Z,11.65
2023-04-19T20:43:26.032Z,11.50
2023-04-19T20:45:53.909Z,11.46
2023-04-19T20:48:22.106Z,11.49
2023-04-19T20:50:49.920Z,11.42
2023-04-19T20:53:19.102Z,11.38
2023-04-19T20:55:47.089Z,11.36
2023-04-19T20:58:14.907Z,11.49
2023-04-19T21:00:42.809Z,11.61
2023-04-19T21:03:11.018Z,11.68
2023-04-19T21:05:39.015Z,11.73
2023-04-19T21:08:06.914Z,11.74
2023-04-19T21:10:36.205Z,11.70
2023-04-19T21:13:04.016Z,11.73
2023-04-19T21:15:31.935Z,11.79
2023-04-19T21:17:59.979Z,11.78
2023-04-19T21:20:28.101Z,11.72
2023-04-19T21:22:56.030Z,11.73
2023-04-19T21:25:24.133Z,11.71
2023-04-19T21:27:53.294Z,11.70
2023-04-19T21:30:23.159Z,11.67
2023-04-19T21:32:51.226Z,11.77
2023-04-19T21:35:19.330Z,11.83
2023-04-19T21:37:47.188Z,11.85
2023-04-19T21:40:15.078Z,11.85
2023-04-19T21:42:43.002Z,11.83
2023-04-19T21:45:12.704Z,11.81
2023-04-19T21:47:40.593Z,11.79
2023-04-19T21:50:10.126Z,11.81
2023-04-19T21:52:38.094Z,11.86
2023-04-19T21:55:07.081Z,11.86
2023-04-19T21:57:35.072Z,11.87
2023-04-19T22:00:04.633Z,11.87
2023-04-19T22:02:36.562Z,11.86
2023-04-19T22:05:07.117Z,11.84
2023-04-19T22:07:37.381Z,11.87
2023-04-19T22:10:07.278Z,11.91
2023-04-19T22:12:36.262Z,11.87
2023-04-19T22:15:09.631Z,11.87
2023-04-19T22:17:40.489Z,11.83
2023-04-19T22:20:12.858Z,11.79
2023-04-19T22:22:40.892Z,11.77
2023-04-19T22:25:09.634Z,11.72
2023-04-19T22:27:37.568Z,11.69
2023-04-19T22:30:06.499Z,11.68
2023-04-19T22:32:34.378Z,11.65
2023-04-19T22:35:04.100Z,11.64
2023-04-19T22:37:32.190Z,11.59
2023-04-19T22:40:00.117Z,11.60
2023-04-19T22:42:28.045Z,11.60
2023-04-19T22:44:55.935Z,11.59
2023-04-19T22:47:23.900Z,11.61
2023-04-19T22:49:51.781Z,11.60
2023-04-19T22:52:21.068Z,11.60
2023-04-19T22:54:48.920Z,11.59
2023-04-19T22:57:16.981Z,11.53
2023-04-19T22:59:44.887Z,11.45
2023-04-19T23:02:12.806Z,11.37
2023-04-19T23:04:40.826Z,11.35
2023-04-19T23:07:08.709Z,11.36
2023-04-19T23:09:39.329Z,11.33
2023-04-19T23:12:08.303Z,11.36
2023-04-19T23:14:38.382Z,11.32
2023-04-19T23:17:06.424Z,11.27
2023-04-19T23:19:34.474Z,11.23
2023-04-19T23:22:02.473Z,11.20
2023-04-19T23:24:30.340Z,11.17
2023-04-19T23:26:59.750Z,11.16
2023-04-19T23:29:27.586Z,11.11
2023-04-19T23:31:55.538Z,11.12
2023-04-19T23:34:23.420Z,11.14
2023-04-19T23:36:51.429Z,11.11
2023-04-19T23:39:20.124Z,11.09
2023-04-19T23:41:48.263Z,11.10
2023-04-19T23:44:17.503Z,11.10
2023-04-19T23:46:45.492Z,11.12
2023-04-19T23:49:13.346Z,11.13
2023-04-19T23:51:41.328Z,11.13
2023-04-19T23:54:09.123Z,11.07
2023-04-19T23:56:36.987Z,11.00
2023-04-19T23:59:04.812Z,10.84
